Time;durP1;ratioP1;P1;durP2;ratioP2;P2;SDS_P1;SDS_P2;PMS_P1;PMS_P2;Temp;Humidity;BMP_temperature;BMP_pressure;BME280_temperature;BME280_humidity;BME280_pressure;Samples;Min_cycle;Max_cycle;Signal;HPM_P1;HPM_P2
2022/06/03 00:01:36;;;;;;;5.45;2.03;;;;;;;17.55;76.96;100017.19;5010875;28;20033;-63
2022/06/03 00:04:10;;;;;;;3.63;1.80;;;;;;;17.54;77.42;100020.84;5011254;28;20416;-63
2022/06/03 00:06:35;;;;;;;2.85;1.98;;;;;;;17.52;77.18;100017.38;5012058;28;20048;-63
2022/06/03 00:09:27;;;;;;;3.20;2.00;;;;;;;17.49;76.84;100022.97;5011930;28;20034;-63
2022/06/03 00:12:24;;;;;;;3.42;1.77;;;;;;;17.46;77.58;100015.03;5011933;28;20036;-63
2022/06/03 00:14:59;;;;;;;3.40;2.03;;;;;;;17.42;78.00;100010.78;5012080;28;20054;-64
2022/06/03 00:17:42;;;;;;;3.40;2.10;;;;;;;17.38;77.86;100009.22;5011423;28;20029;-63
2022/06/03 00:20:28;;;;;;;3.05;1.73;;;;;;;17.37;77.94;100012.91;5003623;28;20046;-63
2022/06/03 00:22:54;;;;;;;8.00;2.50;;;;;;;17.35;77.86;100008.59;4992165;28;20441;-63
2022/06/03 00:25:41;;;;;;;3.00;1.83;;;;;;;17.32;78.07;100016.81;4990626;28;20138;-63
2022/06/03 00:28:24;;;;;;;5.30;2.17;;;;;;;17.23;78.20;100020.94;4990429;28;20038;-63
2022/06/03 00:31:22;;;;;;;2.95;2.00;;;;;;;17.20;78.31;100025.63;4990728;28;20402;-63
2022/06/03 00:34:02;;;;;;;2.00;1.73;;;;;;;17.18;77.92;100028.41;4990745;28;20045;-63
2022/06/03 00:37:01;;;;;;;3.70;2.05;;;;;;;17.17;78.41;100025.78;4990445;28;20375;-63
2022/06/03 00:39:58;;;;;;;4.07;2.15;;;;;;;17.13;78.20;100035.00;4991262;28;20022;-63
2022/06/03 00:43:06;;;;;;;3.55;2.00;;;;;;;17.21;78.39;100033.59;5011348;28;20176;-63
2022/06/03 00:45:50;;;;;;;3.13;1.83;;;;;;;17.20;77.52;100034.53;4973581;28;20057;-63
2022/06/03 00:48:34;;;;;;;;;;;;;;;17.20;76.75;100042.59;5011827;28;20030;-63
2022/06/03 00:51:36;;;;;;;4.43;2.10;;;;;;;17.14;76.41;100045.66;5011051;28;19916;-63
2022/06/03 00:54:10;;;;;;;3.58;1.90;;;;;;;16.95;76.99;100036.94;5011268;28;20030;-63
2022/06/03 00:56:48;;;;;;;3.15;2.10;;;;;;;16.91;76.99;100040.75;5011606;28;20496;-63
2022/06/03 00:59:28;;;;;;;2.70;1.98;;;;;;;16.88;77.86;100038.25;5011081;28;20036;-63
2022/06/03 01:02:04;;;;;;;3.22;2.17;;;;;;;16.83;78.42;100043.03;5011325;28;20014;-63
2022/06/03 01:04:48;;;;;;;4.40;1.80;;;;;;;16.77;78.01;100041.53;5011178;28;20380;-63
2022/06/03 01:07:32;;;;;;;3.08;2.13;;;;;;;16.76;79.04;100041.63;5011213;28;20033;-63
2022/06/03 01:10:16;;;;;;;2.97;2.00;;;;;;;16.73;78.95;100041.81;5015090;28;20033;-63
2022/06/03 01:13:02;;;;;;;4.53;2.17;;;;;;;16.70;78.96;100050.94;5015505;28;20030;-63
2022/06/03 01:16:05;;;;;;;2.92;1.70;;;;;;;16.68;79.07;100054.66;5015502;28;20060;-63
2022/06/03 01:18:51;;;;;;;4.03;2.22;;;;;;;16.64;79.51;100059.31;5015105;28;20026;-63
2022/06/03 01:21:22;;;;;;;2.70;1.75;;;;;;;16.64;79.08;100043.19;4983224;28;20573;-63
2022/06/03 01:23:58;;;;;;;2.97;1.90;;;;;;;16.59;79.59;100042.59;5013085;28;20041;-62
2022/06/03 01:27:01;;;;;;;3.42;2.00;;;;;;;16.54;79.38;100042.00;5012725;28;20092;-62
2022/06/03 01:29:47;;;;;;;3.40;1.92;;;;;;;16.50;80.06;100050.31;4993845;28;20526;-62
2022/06/03 01:32:28;;;;;;;4.28;2.00;;;;;;;16.45;79.43;100046.97;4984747;28;20046;-62
2022/06/03 01:35:10;;;;;;;3.42;1.92;;;;;;;16.44;80.46;100045.25;4996121;28;20097;-62
2022/06/03 01:38:01;;;;;;;3.67;1.92;;;;;;;16.44;79.90;100050.63;5014633;28;20037;-62
2022/06/03 01:40:45;;;;;;;3.40;1.95;;;;;;;16.43;80.15;100048.88;5014784;28;20026;-62
2022/06/03 01:43:23;;;;;;;2.75;1.75;;;;;;;16.42;79.26;100047.16;5014442;28;20049;-62
2022/06/03 01:46:11;;;;;;;3.83;2.33;;;;;;;16.41;78.62;100046.28;5014684;28;20069;-62
2022/06/03 01:49:11;;;;;;;3.35;2.17;;;;;;;16.39;78.19;100052.69;4967629;28;20038;-62
2022/06/03 01:52:15;;;;;;;4.60;2.30;;;;;;;16.35;79.12;100051.13;4995004;28;20077;-62
2022/06/03 01:54:49;;;;;;;2.95;2.15;;;;;;;16.38;78.75;100056.31;4994811;28;20391;-62
2022/06/03 01:57:46;;;;;;;3.25;2.10;;;;;;;16.34;78.00;100057.47;4994979;28;20061;-62
2022/06/03 02:00:29;;;;;;;2.78;2.05;;;;;;;16.34;78.57;100061.00;4994896;28;20022;-63
2022/06/03 02:03:34;;;;;;;3.67;1.80;;;;;;;16.30;78.29;100056.75;4994911;28;20030;-63
2022/06/03 02:06:18;;;;;;;4.90;2.33;;;;;;;16.27;77.50;100048.00;4954815;28;20042;-63
2022/06/03 02:09:02;;;;;;;;;;;;;;;16.29;77.03;100041.59;4995031;28;20031;-63
2022/06/03 02:11:30;;;;;;;2.92;2.10;;;;;;;16.26;78.50;100046.28;4994594;28;19972;-63
2022/06/03 02:14:11;;;;;;;3.35;2.10;;;;;;;16.24;78.53;100049.06;4994478;28;20335;-63
2022/06/03 02:16:54;;;;;;;3.78;2.00;;;;;;;16.20;77.90;100051.97;4998231;28;20216;-63
2022/06/03 02:19:40;;;;;;;2.75;1.85;;;;;;;16.19;79.42;100053.81;5011844;28;20072;-63
2022/06/03 02:22:27;;;;;;;3.22;1.98;;;;;;;16.17;79.15;100052.13;4994454;28;20030;-63
2022/06/03 02:25:08;;;;;;;3.33;2.00;;;;;;;16.13;79.60;100051.44;5000811;28;20038;-63
2022/06/03 02:28:23;;;;;;;3.03;2.33;;;;;;;16.07;79.70;100038.38;5012924;28;20091;-63
2022/06/03 02:30:52;;;;;;;2.97;1.98;;;;;;;16.12;79.99;100043.47;4951766;29;20167;-63
2022/06/03 02:33:46;;;;;;;3.90;2.15;;;;;;;16.12;79.36;100038.09;5001031;28;20044;-63
2022/06/03 02:36:11;;;;;;;3.10;1.98;;;;;;;16.13;79.50;100038.00;5012894;28;20026;-63
2022/06/03 02:39:04;;;;;;;4.72;2.20;;;;;;;16.14;79.57;100039.78;5012593;28;20600;-63
2022/06/03 02:41:45;;;;;;;3.03;2.08;;;;;;;16.10;79.25;100056.09;5012033;28;20022;-63
2022/06/03 02:44:19;;;;;;;2.72;1.90;;;;;;;16.05;78.19;100053.69;5011991;28;20034;-63
2022/06/03 02:47:29;;;;;;;4.18;2.35;;;;;;;16.02;78.96;100044.91;5011660;28;20029;-63
2022/06/03 02:50:32;;;;;;;3.00;2.13;;;;;;;16.03;79.55;100038.63;4985025;28;20042;-63
2022/06/03 02:53:15;;;;;;;3.63;2.25;;;;;;;16.02;78.11;100037.75;4992488;28;20383;-63
2022/06/03 02:56:05;;;;;;;3.38;2.30;;;;;;;16.00;78.28;100031.59;4993385;28;20018;-63
2022/06/03 02:58:59;;;;;;;3.92;2.15;;;;;;;15.99;78.21;100034.34;4993721;28;20074;-62
2022/06/03 03:01:37;;;;;;;3.20;1.58;;;;;;;15.95;77.93;100019.41;4993686;28;20113;-62
2022/06/03 03:04:27;;;;;;;2.65;1.70;;;;;;;15.94;78.87;100025.69;4993446;28;20018;-62
2022/06/03 03:07:01;;;;;;;2.97;2.05;;;;;;;15.90;79.54;100026.81;4993448;28;20036;-62
2022/06/03 03:10:05;;;;;;;3.45;2.03;;;;;;;15.94;79.38;100028.38;5007180;28;20393;-62
2022/06/03 03:12:55;;;;;;;4.70;2.30;;;;;;;15.93;79.74;100032.88;5012750;28;20516;-62
2022/06/03 03:15:35;;;;;;;3.72;2.30;;;;;;;15.91;79.83;100025.88;5012830;28;20021;-63
2022/06/03 03:18:22;;;;;;;5.43;2.35;;;;;;;15.92;79.05;100025.78;5012724;28;20092;-64
2022/06/03 03:21:02;;;;;;;3.85;2.10;;;;;;;15.94;78.75;100033.75;4997858;28;20045;-63
2022/06/03 03:23:47;;;;;;;4.93;2.30;;;;;;;15.94;78.52;100033.75;5006289;28;20074;-63
2022/06/03 03:26:33;;;;;;;7.40;2.10;;;;;;;15.93;77.23;100026.66;5012867;28;20054;-63
2022/06/03 03:29:21;;;;;;;3.70;2.13;;;;;;;15.94;77.52;100020.31;5012704;28;20077;-63
2022/06/03 03:32:05;;;;;;;4.53;2.15;;;;;;;15.92;77.67;100019.53;5012000;28;20401;-64
2022/06/03 03:35:02;;;;;;;4.20;2.20;;;;;;;15.86;78.13;100014.50;5010993;28;20398;-63
2022/06/03 03:37:52;;;;;;;5.65;2.33;;;;;;;15.82;78.03;100016.50;5011130;28;20350;-64
2022/06/03 03:40:53;;;;;;;3.63;2.13;;;;;;;15.77;78.38;100003.34;5010760;28;20021;-64
2022/06/03 03:43:37;;;;;;;3.90;2.30;;;;;;;15.77;78.20;100011.38;5010289;28;20494;-64
2022/06/03 03:46:32;;;;;;;4.45;2.13;;;;;;;15.79;78.27;100009.50;5010168;28;20402;-63
2022/06/03 03:49:15;;;;;;;5.65;2.30;;;;;;;15.78;78.38;100013.09;5011461;28;20025;-64
2022/06/03 03:51:57;;;;;;;3.35;2.25;;;;;;;15.79;78.22;100009.50;4992799;28;20398;-64
2022/06/03 03:54:55;;;;;;;3.75;2.28;;;;;;;15.82;77.49;100013.81;4994024;28;20027;-64
2022/06/03 03:57:38;;;;;;;3.47;2.00;;;;;;;15.82;76.19;100019.16;4978712;28;20244;-64
2022/06/03 04:00:41;;;;;;;3.80;2.17;;;;;;;15.81;76.30;100017.44;5012141;28;20107;-64
2022/06/03 04:03:34;;;;;;;3.05;2.05;;;;;;;15.83;76.28;100013.72;5012200;28;20022;-64
2022/06/03 04:06:36;;;;;;;3.45;2.30;;;;;;;15.87;75.53;100018.91;5011724;28;20030;-64
2022/06/03 04:09:30;;;;;;;3.47;2.30;;;;;;;15.92;75.93;100008.81;5011742;28;20032;-64
2022/06/03 04:12:31;;;;;;;3.33;2.03;;;;;;;15.91;75.18;100012.44;4998798;28;20041;-63
2022/06/03 04:15:28;;;;;;;3.38;2.17;;;;;;;15.93;75.18;100003.34;5011496;28;20397;-63
2022/06/03 04:18:41;;;;;;;4.35;2.20;;;;;;;15.97;75.33;99996.88;5009903;28;20025;-63
2022/06/03 04:21:21;;;;;;;4.30;2.05;;;;;;;15.98;75.74;99990.56;4993274;28;20034;-63
2022/06/03 04:24:38;;;;;;;3.97;2.03;;;;;;;16.03;75.19;99987.66;4990267;28;20168;-63
2022/06/03 04:27:34;;;;;;;2.25;1.90;;;;;;;16.08;75.95;99980.22;4974196;28;20119;-63
2022/06/03 04:30:25;;;;;;;2.70;2.00;;;;;;;16.17;73.65;99993.97;5009778;28;20461;-63
2022/06/03 04:33:14;;;;;;;4.30;2.08;;;;;;;16.27;73.53;99999.69;5011789;28;20021;-63
2022/06/03 04:36:00;;;;;;;3.05;1.90;;;;;;;16.40;72.09;100003.41;5011417;28;20469;-63
2022/06/03 04:38:32;;;;;;;9.05;2.15;;;;;;;16.52;72.21;100000.06;5011642;28;20539;-63
2022/06/03 04:41:22;;;;;;;3.28;2.00;;;;;;;16.78;69.39;100012.88;5011392;28;20084;-63
2022/06/03 04:44:25;;;;;;;4.27;2.00;;;;;;;16.97;69.37;100024.28;5010998;28;20029;-63
2022/06/03 04:47:20;;;;;;;5.30;2.30;;;;;;;17.07;70.04;100031.72;5011302;28;20038;-63
2022/06/03 04:50:29;;;;;;;2.92;1.80;;;;;;;17.16;69.60;100034.81;5005844;28;20030;-63
2022/06/03 04:53:19;;;;;;;5.10;2.03;;;;;;;17.23;69.51;100031.69;4991625;28;20034;-64
2022/06/03 04:56:12;;;;;;;3.38;1.88;;;;;;;17.29;69.14;100036.69;5001596;28;20018;-64
2022/06/03 04:59:03;;;;;;;4.93;2.30;;;;;;;17.38;68.23;100037.97;5011956;28;20080;-64
2022/06/03 05:01:44;;;;;;;2.90;1.90;;;;;;;17.45;67.60;100029.47;5000522;28;20501;-64
2022/06/03 05:04:44;;;;;;;3.38;2.03;;;;;;;17.57;68.79;100035.94;5011232;28;20026;-63
2022/06/03 05:08:01;;;;;;;3.75;1.92;;;;;;;17.70;68.41;100031.53;5010894;28;20037;-63
2022/06/03 05:10:52;;;;;;;3.58;2.28;;;;;;;17.85;67.77;100035.97;5005290;28;20125;-63
2022/06/03 05:13:58;;;;;;;9.60;2.17;;;;;;;18.06;67.20;100030.13;5010868;28;20474;-63
2022/06/03 05:16:48;;;;;;;2.53;1.75;;;;;;;18.19;65.31;100025.69;4999211;28;20132;-63
2022/06/03 05:19:51;;;;;;;3.20;1.92;;;;;;;18.32;64.42;100037.41;5009918;28;20074;-64
2022/06/03 05:22:38;;;;;;;2.60;1.80;;;;;;;18.24;65.16;100037.03;4991187;28;20022;-63
2022/06/03 05:25:33;;;;;;;3.53;1.92;;;;;;;18.36;64.90;100051.53;5000737;28;20061;-63
2022/06/03 05:28:30;;;;;;;3.72;2.25;;;;;;;18.49;63.64;100043.56;5009033;28;20030;-63
2022/06/03 05:31:46;;;;;;;6.57;2.10;;;;;;;18.65;64.60;100033.56;5008971;28;20133;-63
2022/06/03 05:34:23;;;;;;;4.43;2.00;;;;;;;18.76;63.32;100042.66;5008986;28;20026;-63
2022/06/03 05:37:26;;;;;;;3.30;2.03;;;;;;;18.89;62.43;100048.09;5008781;28;20033;-63
2022/06/03 05:40:17;;;;;;;4.50;2.20;;;;;;;19.01;61.47;100052.69;5010253;28;20025;-63
2022/06/03 05:42:43;;;;;;;3.08;1.80;;;;;;;19.04;61.27;100057.88;5010440;28;20069;-63
2022/06/03 05:45:24;;;;;;;4.40;2.30;;;;;;;19.23;60.82;100059.22;5010856;28;20068;-64
2022/06/03 05:48:08;;;;;;;3.72;2.28;;;;;;;19.37;60.37;100050.25;5010835;28;20053;-64
2022/06/03 05:50:43;;;;;;;4.03;2.28;;;;;;;19.57;60.38;100053.31;4998833;28;20031;-64
2022/06/03 05:53:11;;;;;;;2.60;1.80;;;;;;;19.76;60.00;100050.19;4991493;28;20026;-64
2022/06/03 05:55:39;;;;;;;3.63;2.35;;;;;;;20.01;58.74;100031.31;4992729;28;20057;-64
2022/06/03 05:58:27;;;;;;;3.47;2.00;;;;;;;20.14;57.87;100034.00;4994801;28;20053;-64
2022/06/03 06:01:19;;;;;;;3.53;2.13;;;;;;;20.43;57.79;100033.66;4994765;28;20170;-64
2022/06/03 06:04:07;;;;;;;2.80;1.60;;;;;;;20.58;55.94;100042.50;5006897;28;20046;-64
2022/06/03 06:06:51;;;;;;;4.07;2.30;;;;;;;20.66;57.13;100031.97;5013478;28;20045;-64
2022/06/03 06:09:47;;;;;;;3.50;2.08;;;;;;;20.76;56.56;100030.31;5014607;28;20025;-64
2022/06/03 06:12:22;;;;;;;4.53;2.38;;;;;;;20.70;55.66;100034.38;5014102;28;20113;-64
2022/06/03 06:15:15;;;;;;;3.05;2.47;;;;;;;20.75;55.59;100032.19;5014601;28;20029;-64
2022/06/03 06:17:59;;;;;;;4.77;1.90;;;;;;;20.95;55.29;100036.94;5013904;28;20482;-64
2022/06/03 06:20:34;;;;;;;3.95;1.98;;;;;;;21.02;54.79;100036.53;5003249;28;20385;-63
2022/06/03 06:23:30;;;;;;;4.22;2.20;;;;;;;20.88;53.96;100046.53;4994345;28;20038;-63
2022/06/03 06:26:11;;;;;;;5.25;2.08;;;;;;;21.00;56.46;100054.72;4983549;28;20051;-63
2022/06/03 06:28:50;;;;;;;4.05;1.90;;;;;;;21.07;55.52;100046.03;5006510;28;20034;-63
2022/06/03 06:31:21;;;;;;;3.85;2.42;;;;;;;21.19;56.20;100034.28;5013742;28;20036;-63
2022/06/03 06:34:05;;;;;;;3.95;2.33;;;;;;;21.44;54.60;100035.97;5013904;28;20037;-63
2022/06/03 06:36:58;;;;;;;3.72;2.10;;;;;;;21.60;54.79;100040.09;5013780;28;20109;-64
2022/06/03 06:39:48;;;;;;;5.05;2.25;;;;;;;21.68;55.54;100039.53;5013737;28;20030;-64
2022/06/03 06:42:41;;;;;;;3.42;2.03;;;;;;;21.88;54.32;100044.25;5014200;28;20358;-63
2022/06/03 06:45:22;;;;;;;3.50;1.90;;;;;;;21.96;55.19;100023.72;5013451;28;20044;-63
2022/06/03 06:48:01;;;;;;;5.53;2.28;;;;;;;22.04;55.14;100017.72;5013745;28;20022;-64
2022/06/03 06:50:34;;;;;;;4.30;1.90;;;;;;;22.18;53.13;100017.44;5002171;28;20445;-64
2022/06/03 06:53:07;;;;;;;5.35;2.20;;;;;;;22.07;54.21;100017.47;4993826;28;20037;-64
2022/06/03 06:56:02;;;;;;;5.07;2.00;;;;;;;21.78;54.88;100016.16;4994041;28;20030;-64
2022/06/03 06:58:31;;;;;;;4.70;2.45;;;;;;;21.74;54.41;100025.50;4993621;28;20088;-63
2022/06/03 07:00:59;;;;;;;6.40;2.38;;;;;;;21.64;54.73;100024.50;4993808;28;20034;-63
2022/06/03 07:04:02;;;;;;;4.65;2.47;;;;;;;21.61;55.11;100033.72;4993682;28;20037;-63
2022/06/03 07:07:00;;;;;;;4.07;2.38;;;;;;;21.67;56.50;100018.81;5011181;28;20038;-64
2022/06/03 07:09:50;;;;;;;5.53;2.40;;;;;;;21.59;57.72;100010.44;5012821;28;20030;-63
2022/06/03 07:12:19;;;;;;;5.75;2.30;;;;;;;21.61;56.80;99992.25;5012864;28;20029;-63
2022/06/03 07:14:57;;;;;;;3.58;2.10;;;;;;;21.68;56.33;99993.50;5013155;28;20030;-63
2022/06/03 07:20:28;;;;;;;6.93;2.55;;;;;;;21.65;54.27;99980.16;5013153;28;20401;-63
2022/06/03 07:22:58;;;;;;;7.13;3.03;;;;;;;21.60;55.47;99983.25;5012812;28;20112;-63
2022/06/03 07:25:42;;;;;;;3.60;2.40;;;;;;;21.67;54.49;99975.50;5012786;28;20042;-64
2022/06/03 07:28:33;;;;;;;7.18;2.13;;;;;;;21.92;55.77;99956.38;5012363;28;20449;-63
2022/06/03 07:31:07;;;;;;;3.67;2.05;;;;;;;21.97;54.56;99951.44;5012785;28;20038;-63
2022/06/03 07:33:32;;;;;;;5.18;2.38;;;;;;;22.29;55.83;99946.13;5012515;28;20044;-63
2022/06/03 07:36:01;;;;;;;2.92;2.05;;;;;;;22.77;54.25;99945.69;5012360;28;20022;-63
2022/06/03 07:38:37;;;;;;;6.63;2.60;;;;;;;22.90;52.29;99954.50;5012188;28;20026;-63
2022/06/03 07:41:17;;;;;;;4.53;2.00;;;;;;;22.99;52.73;99974.59;5012497;28;20034;-63
2022/06/03 07:43:53;;;;;;;6.00;2.67;;;;;;;23.15;51.89;99977.72;5012789;28;20037;-63
2022/06/03 07:46:25;;;;;;;4.57;2.47;;;;;;;23.46;52.39;99978.72;5012412;28;20037;-63
2022/06/03 07:48:52;;;;;;;7.10;2.53;;;;;;;24.14;50.29;99973.56;5012144;28;20034;-63
2022/06/03 07:51:32;;;;;;;5.05;2.33;;;;;;;24.78;46.89;99980.38;4995293;28;20030;-63
2022/06/03 07:54:06;;;;;;;4.15;2.25;;;;;;;25.44;45.97;99979.59;5010897;28;20501;-63
2022/06/03 07:56:34;;;;;;;5.55;2.33;;;;;;;25.98;44.49;99965.28;5010374;28;20034;-63
2022/06/03 07:59:04;;;;;;;5.68;2.00;;;;;;;26.50;45.64;99958.34;5010638;28;20695;-63
2022/06/03 08:01:36;;;;;;;4.07;2.33;;;;;;;27.01;43.63;99942.22;5010495;28;20112;-63
2022/06/03 08:04:04;;;;;;;5.25;2.25;;;;;;;27.28;41.87;99958.59;5011013;28;20052;-63
2022/06/03 08:10:56;;;;;;;4.65;2.42;;;;;;;27.23;42.64;99954.56;5010473;28;20099;-63
2022/06/03 08:12:11;;;;;;;5.88;2.45;;;;;;;27.26;42.61;99944.19;4996258;28;20575;-63
2022/06/03 08:14:36;;;;;;;3.78;2.00;;;;;;;27.77;41.84;99938.81;5011427;28;20030;-63
2022/06/03 08:17:04;;;;;;;4.50;2.13;;;;;;;28.03;42.96;99939.69;5011013;28;20359;-63
2022/06/03 08:19:33;;;;;;;3.63;2.17;;;;;;;28.03;40.42;99934.22;5006264;28;20453;-63
2022/06/03 08:22:02;;;;;;;3.92;2.28;;;;;;;27.56;41.63;99941.03;4990799;28;20029;-63
2022/06/03 08:24:32;;;;;;;4.30;2.20;;;;;;;27.58;41.94;99943.63;4990388;28;20394;-63
2022/06/03 08:27:03;;;;;;;5.13;2.47;;;;;;;28.09;42.20;99936.28;4990804;28;20038;-63
2022/06/03 08:29:37;;;;;;;3.97;2.00;;;;;;;28.55;41.36;99912.25;4989446;28;20033;-63
2022/06/03 08:32:07;;;;;;;3.53;1.95;;;;;;;28.32;41.51;99904.59;4994459;28;20036;-63
2022/06/03 08:34:45;;;;;;;3.90;2.25;;;;;;;28.56;41.24;99897.50;5010095;28;20146;-63
2022/06/03 08:37:19;;;;;;;3.38;1.95;;;;;;;29.11;41.12;99895.94;5009276;28;20026;-64
2022/06/03 08:39:47;;;;;;;6.72;2.28;;;;;;;29.58;41.23;99905.16;5008829;28;20125;-64
2022/06/03 08:42:32;;;;;;;3.42;1.90;;;;;;;29.29;41.13;99918.56;5009653;28;20104;-64
2022/06/03 08:45:21;;;;;;;4.32;2.00;;;;;;;28.96;40.02;99925.00;5009453;28;20034;-64
2022/06/03 08:47:52;;;;;;;4.25;2.10;;;;;;;28.99;40.25;99913.69;5009588;28;20030;-64
2022/06/03 08:50:38;;;;;;;3.92;2.28;;;;;;;29.33;40.14;99919.91;4999923;28;20066;-64
2022/06/03 08:53:29;;;;;;;8.88;2.30;;;;;;;29.50;40.01;99921.63;4991287;28;20034;-64
2022/06/03 08:56:18;;;;;;;3.58;1.90;;;;;;;30.18;39.12;99911.88;4991882;28;20393;-64
2022/06/03 08:58:57;;;;;;;5.38;3.08;;;;;;;30.58;37.31;99914.50;4991722;28;20525;-65
2022/06/03 09:01:25;;;;;;;6.50;2.28;;;;;;;30.45;37.91;99908.72;4990449;28;20112;-65
2022/06/03 09:04:02;;;;;;;4.80;2.00;;;;;;;30.55;38.09;99901.13;4989440;28;20426;-65
2022/06/03 09:06:36;;;;;;;3.45;1.92;;;;;;;30.89;38.44;99904.38;4995121;28;20033;-64
2022/06/03 09:09:08;;;;;;;3.83;2.10;;;;;;;31.01;36.86;99901.19;5009929;28;20037;-65
2022/06/03 09:12:07;;;;;;;4.18;1.95;;;;;;;30.36;38.09;99915.28;5009864;28;20037;-65
2022/06/03 09:14:33;;;;;;;4.70;2.00;;;;;;;29.70;38.73;99923.00;4990752;28;20030;-65
2022/06/03 09:17:07;;;;;;;5.28;2.25;;;;;;;29.48;39.14;99915.44;5009395;28;20034;-64
2022/06/03 09:19:41;;;;;;;3.33;2.00;;;;;;;29.89;39.30;99914.41;5009186;28;20070;-64
2022/06/03 09:22:13;;;;;;;3.30;1.70;;;;;;;30.59;37.72;99909.88;5009923;28;20030;-64
2022/06/03 09:24:41;;;;;;;2.70;1.90;;;;;;;30.99;37.52;99914.28;5009276;28;20468;-64
2022/06/03 09:27:10;;;;;;;7.13;2.35;;;;;;;31.37;37.07;99921.59;5009569;28;20034;-64
2022/06/03 09:29:38;;;;;;;4.68;2.10;;;;;;;32.14;37.71;99926.69;5009612;28;20520;-64
2022/06/03 09:32:06;;;;;;;3.17;1.98;;;;;;;32.73;36.55;99924.75;5015551;28;20053;-65
2022/06/03 09:34:44;;;;;;;2.92;1.80;;;;;;;32.69;33.95;99928.91;5014700;28;20026;-65
2022/06/03 09:37:17;;;;;;;3.75;1.90;;;;;;;32.68;35.53;99936.34;5015223;28;20062;-66
2022/06/03 09:39:47;;;;;;;4.28;1.77;;;;;;;32.42;36.36;99936.03;5013322;28;20557;-66
2022/06/03 09:42:15;;;;;;;2.83;1.80;;;;;;;32.30;36.81;99943.00;5013306;28;20100;-66
2022/06/03 09:44:41;;;;;;;3.42;2.05;;;;;;;31.62;35.47;99936.81;5013005;28;20022;-66
2022/06/03 09:47:09;;;;;;;3.17;1.63;;;;;;;31.08;37.11;99948.91;5013280;28;20092;-65
2022/06/03 09:49:35;;;;;;;6.65;1.60;;;;;;;30.82;38.59;99943.75;5012935;28;20449;-65
2022/06/03 09:52:03;;;;;;;6.35;1.40;;;;;;;30.57;38.15;99951.25;5013550;28;20033;-65
2022/06/03 09:54:34;;;;;;;2.80;1.67;;;;;;;30.53;39.12;99955.38;4996626;28;20477;-65
2022/06/03 09:57:13;;;;;;;2.30;1.80;;;;;;;29.78;38.23;99955.91;5014703;28;20481;-65
2022/06/03 09:59:52;;;;;;;3.83;1.88;;;;;;;29.30;39.77;99969.59;5014329;28;20031;-65
2022/06/03 10:02:17;;;;;;;6.75;2.45;;;;;;;29.02;42.01;99959.91;5014548;28;20034;-65
2022/06/03 10:04:42;;;;;;;4.07;2.10;;;;;;;28.67;42.60;99966.50;5014235;28;20026;-63
2022/06/03 10:07:11;;;;;;;2.20;1.80;;;;;;;28.67;42.33;99965.63;5014702;28;20065;-63
2022/06/03 10:12:52;;;;;;;3.63;2.00;;;;;;;28.55;43.15;99976.03;5014365;28;20033;-63
2022/06/03 10:18:31;;;;;;;3.03;2.03;;;;;;;28.06;41.96;100024.16;4975795;28;20046;-63
2022/06/03 10:21:16;;;;;;;4.55;1.80;;;;;;;27.63;43.79;100037.78;5008097;28;20080;-63
2022/06/03 10:24:12;;;;;;;3.97;1.80;;;;;;;27.29;43.54;100044.97;5011824;28;20022;-62
2022/06/03 10:26:49;;;;;;;4.75;2.00;;;;;;;26.97;43.84;100050.03;5009686;28;20050;-62
2022/06/03 10:29:19;;;;;;;5.15;2.30;;;;;;;26.82;45.01;100038.75;5011517;28;20088;-62
2022/06/03 10:31:58;;;;;;;3.75;2.20;;;;;;;26.70;44.84;100025.50;5011775;28;20064;-62
2022/06/03 10:34:26;;;;;;;4.80;2.30;;;;;;;26.71;44.69;100019.88;5012941;28;20097;-64
2022/06/03 10:36:55;;;;;;;5.53;2.50;;;;;;;26.59;45.76;99999.22;5012845;28;20026;-64
2022/06/03 10:39:27;;;;;;;3.25;2.40;;;;;;;26.41;46.33;99997.47;5012603;28;20026;-64
2022/06/03 10:41:54;;;;;;;5.45;2.75;;;;;;;26.32;47.15;99985.56;5012807;28;20032;-64
2022/06/03 10:44:23;;;;;;;9.75;2.72;;;;;;;26.24;48.18;99969.09;4996089;28;20081;-64
2022/06/03 10:46:55;;;;;;;5.05;2.70;;;;;;;25.92;49.60;99947.66;5013741;28;20038;-63
2022/06/03 10:49:22;;;;;;;4.13;2.53;;;;;;;25.79;50.64;99932.63;5011849;28;20610;-64
2022/06/03 11:03:27;;;;;;;8.13;2.78;;;;;;;25.85;50.36;99851.13;4952408;29;20031;-64
2022/06/03 11:05:52;;;;;;;5.72;3.45;;;;;;;26.06;50.51;99844.63;4952160;29;20031;-64
2022/06/03 11:08:19;;;;;;;4.28;2.78;;;;;;;26.38;49.37;99843.13;4975689;28;20506;-65
2022/06/03 11:10:45;;;;;;;5.25;3.10;;;;;;;26.85;48.64;99830.16;4993718;28;20471;-64
2022/06/03 11:13:15;;;;;;;5.20;2.75;;;;;;;27.28;47.90;99832.06;4993310;28;20026;-64
2022/06/03 11:15:41;;;;;;;5.20;3.00;;;;;;;27.77;47.09;99836.78;4993534;28;20036;-64
2022/06/03 11:18:24;;;;;;;5.80;2.70;;;;;;;28.79;45.81;99828.28;5009062;28;20065;-64
2022/06/03 11:20:52;;;;;;;3.58;2.50;;;;;;;29.80;43.88;99827.69;5004500;28;20528;-64
2022/06/03 11:23:19;;;;;;;4.03;2.72;;;;;;;30.17;41.67;99830.59;5012217;28;20026;-64
2022/06/03 11:25:50;;;;;;;3.90;2.20;;;;;;;29.82;41.64;99842.06;5012458;28;20045;-64
2022/06/03 11:28:51;;;;;;;4.43;2.92;;;;;;;29.66;43.13;99855.81;5012792;28;20040;-64
2022/06/03 11:31:25;;;;;;;4.63;2.20;;;;;;;30.11;42.14;99871.63;5009659;28;20464;-64
2022/06/03 11:34:02;;;;;;;4.72;2.55;;;;;;;31.10;41.48;99883.63;5012561;28;20029;-64
2022/06/03 11:37:01;;;;;;;3.63;2.70;;;;;;;31.75;38.42;99893.00;5012619;28;20172;-64
2022/06/03 11:39:37;;;;;;;4.57;2.30;;;;;;;31.54;38.38;99892.88;4998537;28;20500;-64
2022/06/03 11:42:15;;;;;;;4.03;2.30;;;;;;;31.96;39.23;99905.03;5012578;28;20516;-64
2022/06/03 11:44:58;;;;;;;4.57;2.70;;;;;;;32.65;37.03;99903.69;5012473;28;20022;-64
2022/06/03 11:47:28;;;;;;;4.70;2.30;;;;;;;32.41;36.74;99898.50;5012346;28;20067;-64
2022/06/03 11:49:54;;;;;;;3.00;2.08;;;;;;;32.01;37.70;99893.47;5012043;28;20029;-64
2022/06/03 11:52:23;;;;;;;4.93;2.05;;;;;;;31.96;38.71;99868.41;5011993;28;20488;-64
2022/06/03 11:54:51;;;;;;;3.30;2.33;;;;;;;31.63;38.30;99869.78;5012315;28;20022;-64
2022/06/03 11:57:17;;;;;;;4.15;2.10;;;;;;;31.66;38.77;99874.91;5012157;28;20092;-64
2022/06/03 11:59:54;;;;;;;4.75;2.50;;;;;;;31.31;40.09;99870.91;5012361;28;20029;-64
2022/06/03 12:02:45;;;;;;;3.85;2.13;;;;;;;31.10;39.19;99880.88;5012411;28;20432;-65
2022/06/03 12:05:27;;;;;;;10.65;3.08;;;;;;;30.99;39.82;99889.56;5011856;28;20096;-64
2022/06/03 12:08:01;;;;;;;3.25;1.92;;;;;;;31.10;39.71;99902.88;5012042;28;20030;-64
2022/06/03 12:10:55;;;;;;;3.60;2.40;;;;;;;30.11;40.17;99915.53;5011856;28;20037;-64
2022/06/03 12:13:27;;;;;;;;;;;;;;;29.38;41.60;99928.47;5011966;28;20301;-63
2022/06/03 12:15:52;;;;;;;4.07;2.55;;;;;;;29.08;43.15;99930.00;5012024;28;20460;-63
2022/06/03 12:18:34;;;;;;;2.72;2.20;;;;;;;28.98;45.13;99939.38;5012047;28;20117;-63
2022/06/03 12:21:13;;;;;;;4.32;2.53;;;;;;;28.89;45.51;99934.91;4996383;28;20030;-63
2022/06/03 12:23:38;;;;;;;4.60;2.55;;;;;;;28.94;45.39;99940.75;4992476;28;20037;-63
2022/06/03 12:26:16;;;;;;;3.38;2.40;;;;;;;28.91;45.11;99941.09;4990910;28;20495;-63
2022/06/03 12:28:45;;;;;;;3.63;2.67;;;;;;;28.91;44.62;99930.13;4990708;28;20033;-64
2022/06/03 12:31:31;;;;;;;4.40;2.35;;;;;;;28.92;45.41;99937.31;4990572;28;20026;-64
2022/06/03 12:34:11;;;;;;;6.07;2.63;;;;;;;28.67;44.79;99954.69;4990886;28;20029;-64
2022/06/03 12:36:39;;;;;;;4.25;2.47;;;;;;;28.61;46.45;99960.84;4990725;28;20105;-64
2022/06/03 12:39:05;;;;;;;6.85;2.65;;;;;;;28.39;48.07;99952.16;4990583;28;20053;-63
2022/06/03 12:41:45;;;;;;;5.20;2.65;;;;;;;28.27;48.33;99953.47;4991370;28;20042;-63
2022/06/03 12:44:40;;;;;;;6.97;2.92;;;;;;;28.20;48.98;99948.84;4991826;28;20041;-63
2022/06/03 12:47:18;;;;;;;3.88;2.50;;;;;;;28.07;48.49;99948.44;5010160;28;20041;-63
2022/06/03 12:49:43;;;;;;;5.22;2.70;;;;;;;27.98;49.96;99947.50;5006352;28;20359;-63
2022/06/03 12:52:33;;;;;;;4.40;2.35;;;;;;;27.93;50.61;99941.69;4992070;28;20034;-63
2022/06/03 12:55:17;;;;;;;4.25;2.67;;;;;;;27.96;50.58;99933.13;4991479;28;20054;-63
2022/06/03 12:57:48;;;;;;;5.03;3.10;;;;;;;27.78;49.11;99932.31;4991714;28;20038;-63
2022/06/03 13:00:35;;;;;;;4.88;2.88;;;;;;;27.62;49.56;99929.47;4992023;28;20027;-64